Aviation Digital Data Service (ADDS)

Output produced by METARs form (1040 UTC 17 June 2019)
found at http://www.aviationweather.gov/metar/data/
 
METAR text: WMKP 171030Z 20006KT 170V240 8000 FEW020 SCT140 BKN270 31/27 Q1008 NOSIG
Conditions at: WMKP (PENANG/BAYAN LEP, MY) observed 1030 UTC 17 June 2019
Temperature: 31.0°C (88°F)
Dewpoint: 27.0°C (81°F) [RH = 79%]
Pressure (altimeter): 29.76 inches Hg (1008.0 mb)
Winds: from the SSW (200 degrees) at 7 MPH (6 knots; 3.1 m/s)
Visibility: 5 miles ( 8 km)
Ceiling: 27000 feet AGL
Clouds: few clouds at 2000 feet AGL
scattered clouds at 14000 feet AGL
broken clouds at 27000 feet AGL
Weather: no significant weather observed at this time

METAR text: WMKP 171000Z 22006KT 180V270 8000 FEW020 SCT140 BKN270 31/27 Q1007 NOSIG
Conditions at: WMKP (PENANG/BAYAN LEP, MY) observed 1000 UTC 17 June 2019
Temperature: 31.0°C (88°F)
Dewpoint: 27.0°C (81°F) [RH = 79%]
Pressure (altimeter): 29.73 inches Hg (1007.0 mb)
Winds: from the SW (220 degrees) at 7 MPH (6 knots; 3.1 m/s)
Visibility: 5 miles ( 8 km)
Ceiling: 27000 feet AGL
Clouds: few clouds at 2000 feet AGL
scattered clouds at 14000 feet AGL
broken clouds at 27000 feet AGL
Weather: no significant weather observed at this time

METAR text: WMKP 170930Z 22007KT 190V250 8000 FEW020 SCT140 BKN270 31/26 Q1008 NOSIG
Conditions at: WMKP (PENANG/BAYAN LEP, MY) observed 0930 UTC 17 June 2019
Temperature: 31.0°C (88°F)
Dewpoint: 26.0°C (79°F) [RH = 75%]
Pressure (altimeter): 29.76 inches Hg (1008.0 mb)
Winds: from the SW (220 degrees) at 8 MPH (7 knots; 3.6 m/s)
Visibility: 5 miles ( 8 km)
Ceiling: 27000 feet AGL
Clouds: few clouds at 2000 feet AGL
scattered clouds at 14000 feet AGL
broken clouds at 27000 feet AGL
Weather: no significant weather observed at this time

METAR text: WMKP 170900Z 22007KT 190V260 8000 FEW020 SCT140 BKN270 32/26 Q1008 NOSIG
Conditions at: WMKP (PENANG/BAYAN LEP, MY) observed 0900 UTC 17 June 2019
Temperature: 32.0°C (90°F)
Dewpoint: 26.0°C (79°F) [RH = 71%]
Pressure (altimeter): 29.76 inches Hg (1008.0 mb)
Winds: from the SW (220 degrees) at 8 MPH (7 knots; 3.6 m/s)
Visibility: 5 miles ( 8 km)
Ceiling: 27000 feet AGL
Clouds: few clouds at 2000 feet AGL
scattered clouds at 14000 feet AGL
broken clouds at 27000 feet AGL
Weather: no significant weather observed at this time

METAR text: WMKP 170830Z 24006KT 200V280 8000 FEW020 SCT140 BKN270 31/26 Q1008 NOSIG
Conditions at: WMKP (PENANG/BAYAN LEP, MY) observed 0830 UTC 17 June 2019
Temperature: 31.0°C (88°F)
Dewpoint: 26.0°C (79°F) [RH = 75%]
Pressure (altimeter): 29.76 inches Hg (1008.0 mb)
Winds: from the WSW (240 degrees) at 7 MPH (6 knots; 3.1 m/s)
Visibility: 5 miles ( 8 km)
Ceiling: 27000 feet AGL
Clouds: few clouds at 2000 feet AGL
scattered clouds at 14000 feet AGL
broken clouds at 27000 feet AGL
Weather: no significant weather observed at this time

METAR text: WMKP 170800Z 24005KT 190V280 8000 FEW020 SCT140 BKN270 31/26 Q1008 NOSIG
Conditions at: WMKP (PENANG/BAYAN LEP, MY) observed 0800 UTC 17 June 2019
Temperature: 31.0°C (88°F)
Dewpoint: 26.0°C (79°F) [RH = 75%]
Pressure (altimeter): 29.76 inches Hg (1008.0 mb)
Winds: from the WSW (240 degrees) at 6 MPH (5 knots; 2.6 m/s)
Visibility: 5 miles ( 8 km)
Ceiling: 27000 feet AGL
Clouds: few clouds at 2000 feet AGL
scattered clouds at 14000 feet AGL
broken clouds at 27000 feet AGL
Weather: no significant weather observed at this time

METAR text: WMKP 170730Z 24006KT 190V280 8000 FEW017CB SCT140 BKN270 31/26 Q1008 NOSIG
Conditions at: WMKP (PENANG/BAYAN LEP, MY) observed 0730 UTC 17 June 2019
Temperature: 31.0°C (88°F)
Dewpoint: 26.0°C (79°F) [RH = 75%]
Pressure (altimeter): 29.76 inches Hg (1008.0 mb)
Winds: from the WSW (240 degrees) at 7 MPH (6 knots; 3.1 m/s)
Visibility: 5 miles ( 8 km)
Ceiling: 27000 feet AGL
Clouds: few clouds at 1700 feet AGL
scattered clouds at 14000 feet AGL
broken clouds at 27000 feet AGL
Weather: no significant weather observed at this time

METAR text: WMKP 170700Z 23007KT 200V260 8000 FEW017CB SCT140 BKN270 31/26 Q1009 NOSIG
Conditions at: WMKP (PENANG/BAYAN LEP, MY) observed 0700 UTC 17 June 2019
Temperature: 31.0°C (88°F)
Dewpoint: 26.0°C (79°F) [RH = 75%]
Pressure (altimeter): 29.79 inches Hg (1009.0 mb)
Winds: from the SW (230 degrees) at 8 MPH (7 knots; 3.6 m/s)
Visibility: 5 miles ( 8 km)
Ceiling: 27000 feet AGL
Clouds: few clouds at 1700 feet AGL
scattered clouds at 14000 feet AGL
broken clouds at 27000 feet AGL
Weather: no significant weather observed at this time

METAR text: WMKP 170630Z 23007KT 170V280 8000 FEW017CB SCT140 BKN270 32/26 Q1009 NOSIG
Conditions at: WMKP (PENANG/BAYAN LEP, MY) observed 0630 UTC 17 June 2019
Temperature: 32.0°C (90°F)
Dewpoint: 26.0°C (79°F) [RH = 71%]
Pressure (altimeter): 29.79 inches Hg (1009.0 mb)
Winds: from the SW (230 degrees) at 8 MPH (7 knots; 3.6 m/s)
Visibility: 5 miles ( 8 km)
Ceiling: 27000 feet AGL
Clouds: few clouds at 1700 feet AGL
scattered clouds at 14000 feet AGL
broken clouds at 27000 feet AGL
Weather: no significant weather observed at this time

METAR text: WMKP 170600Z 22008KT 190V250 8000 FEW020 SCT140 BKN270 32/26 Q1010 RETS NOSIG
Conditions at: WMKP (PENANG/BAYAN LEP, MY) observed 0600 UTC 17 June 2019
Temperature: 32.0°C (90°F)
Dewpoint: 26.0°C (79°F) [RH = 71%]
Pressure (altimeter): 29.82 inches Hg (1010.0 mb)
Winds: from the SW (220 degrees) at 9 MPH (8 knots; 4.1 m/s)
Visibility: 5 miles ( 8 km)
Ceiling: 27000 feet AGL
Clouds: few clouds at 2000 feet AGL
scattered clouds at 14000 feet AGL
broken clouds at 27000 feet AGL
Weather: no significant weather observed at this time

METAR text: WMKP 170530Z 22007KT 160V250 8000 TS FEW017CB SCT140 BKN270 32/26 Q1010 NOSIG
Conditions at: WMKP (PENANG/BAYAN LEP, MY) observed 0530 UTC 17 June 2019
Temperature: 32.0°C (90°F)
Dewpoint: 26.0°C (79°F) [RH = 71%]
Pressure (altimeter): 29.82 inches Hg (1010.0 mb)
Winds: from the SW (220 degrees) at 8 MPH (7 knots; 3.6 m/s)
Visibility: 5 miles ( 8 km)
Ceiling: 27000 feet AGL
Clouds: few clouds at 1700 feet AGL
scattered clouds at 14000 feet AGL
broken clouds at 27000 feet AGL
Weather: TS  (thunderstorm)

METAR text: WMKP 170500Z 22008KT 160V260 8000 TS FEW017CB SCT140 BKN270 33/25 Q1010 NOSIG
Conditions at: WMKP (PENANG/BAYAN LEP, MY) observed 0500 UTC 17 June 2019
Temperature: 33.0°C (91°F)
Dewpoint: 25.0°C (77°F) [RH = 63%]
Pressure (altimeter): 29.82 inches Hg (1010.0 mb)
Winds: from the SW (220 degrees) at 9 MPH (8 knots; 4.1 m/s)
Visibility: 5 miles ( 8 km)
Ceiling: 27000 feet AGL
Clouds: few clouds at 1700 feet AGL
scattered clouds at 14000 feet AGL
broken clouds at 27000 feet AGL
Weather: TS  (thunderstorm)

METAR text: WMKP 170430Z 20007KT 160V250 8000 FEW020 SCT140 BKN270 32/26 Q1010 NOSIG
Conditions at: WMKP (PENANG/BAYAN LEP, MY) observed 0430 UTC 17 June 2019
Temperature: 32.0°C (90°F)
Dewpoint: 26.0°C (79°F) [RH = 71%]
Pressure (altimeter): 29.82 inches Hg (1010.0 mb)
Winds: from the SSW (200 degrees) at 8 MPH (7 knots; 3.6 m/s)
Visibility: 5 miles ( 8 km)
Ceiling: 27000 feet AGL
Clouds: few clouds at 2000 feet AGL
scattered clouds at 14000 feet AGL
broken clouds at 27000 feet AGL
Weather: no significant weather observed at this time

METAR text: WMKP 170400Z 21007KT 160V250 7000 FEW020 SCT140 BKN270 32/26 Q1010 NOSIG
Conditions at: WMKP (PENANG/BAYAN LEP, MY) observed 0400 UTC 17 June 2019
Temperature: 32.0°C (90°F)
Dewpoint: 26.0°C (79°F) [RH = 71%]
Pressure (altimeter): 29.82 inches Hg (1010.0 mb)
Winds: from the SSW (210 degrees) at 8 MPH (7 knots; 3.6 m/s)
Visibility: 4 miles ( 7 km)
Ceiling: 27000 feet AGL
Clouds: few clouds at 2000 feet AGL
scattered clouds at 14000 feet AGL
broken clouds at 27000 feet AGL
Weather: no significant weather observed at this time

METAR text: WMKP 170330Z 21006KT 170V250 7000 FEW017CB SCT140 BKN270 32/26 Q1010 NOSIG
Conditions at: WMKP (PENANG/BAYAN LEP, MY) observed 0330 UTC 17 June 2019
Temperature: 32.0°C (90°F)
Dewpoint: 26.0°C (79°F) [RH = 71%]
Pressure (altimeter): 29.82 inches Hg (1010.0 mb)
Winds: from the SSW (210 degrees) at 7 MPH (6 knots; 3.1 m/s)
Visibility: 4 miles ( 7 km)
Ceiling: 27000 feet AGL
Clouds: few clouds at 1700 feet AGL
scattered clouds at 14000 feet AGL
broken clouds at 27000 feet AGL
Weather: no significant weather observed at this time

METAR text: WMKP 170300Z 16006KT 110V210 7000 FEW017CB BKN140 BKN270 31/27 Q1010 RETS NOSIG
Conditions at: WMKP (PENANG/BAYAN LEP, MY) observed 0300 UTC 17 June 2019
Temperature: 31.0°C (88°F)
Dewpoint: 27.0°C (81°F) [RH = 79%]
Pressure (altimeter): 29.82 inches Hg (1010.0 mb)
Winds: from the SSE (160 degrees) at 7 MPH (6 knots; 3.1 m/s)
Visibility: 4 miles ( 7 km)
Ceiling: 14000 feet AGL
Clouds: few clouds at 1700 feet AGL
broken clouds at 14000 feet AGL
broken clouds at 27000 feet AGL
Weather: no significant weather observed at this time

METAR text: WMKP 170230Z 13004KT 080V180 7000 FEW017CB BKN140 BKN270 30/27 Q1010 RETS NOSIG
Conditions at: WMKP (PENANG/BAYAN LEP, MY) observed 0230 UTC 17 June 2019
Temperature: 30.0°C (86°F)
Dewpoint: 27.0°C (81°F) [RH = 84%]
Pressure (altimeter): 29.82 inches Hg (1010.0 mb)
Winds: from the SE (130 degrees) at 5 MPH (4 knots; 2.1 m/s)
Visibility: 4 miles ( 7 km)
Ceiling: 14000 feet AGL
Clouds: few clouds at 1700 feet AGL
broken clouds at 14000 feet AGL
broken clouds at 27000 feet AGL
Weather: no significant weather observed at this time

METAR text: WMKP 170200Z 14004KT 080V170 7000 TS FEW017CB BKN140 BKN270 30/27 Q1010 NOSIG
Conditions at: WMKP (PENANG/BAYAN LEP, MY) observed 0200 UTC 17 June 2019
Temperature: 30.0°C (86°F)
Dewpoint: 27.0°C (81°F) [RH = 84%]
Pressure (altimeter): 29.82 inches Hg (1010.0 mb)
Winds: from the SE (140 degrees) at 5 MPH (4 knots; 2.1 m/s)
Visibility: 4 miles ( 7 km)
Ceiling: 14000 feet AGL
Clouds: few clouds at 1700 feet AGL
broken clouds at 14000 feet AGL
broken clouds at 27000 feet AGL
Weather: TS  (thunderstorm)

METAR text: WMKP 170130Z 15005KT 100V210 7000 TS FEW017CB BKN140 BKN270 30/27 Q1010 NOSIG
Conditions at: WMKP (PENANG/BAYAN LEP, MY) observed 0130 UTC 17 June 2019
Temperature: 30.0°C (86°F)
Dewpoint: 27.0°C (81°F) [RH = 84%]
Pressure (altimeter): 29.82 inches Hg (1010.0 mb)
Winds: from the SSE (150 degrees) at 6 MPH (5 knots; 2.6 m/s)
Visibility: 4 miles ( 7 km)
Ceiling: 14000 feet AGL
Clouds: few clouds at 1700 feet AGL
broken clouds at 14000 feet AGL
broken clouds at 27000 feet AGL
Weather: TS  (thunderstorm)

METAR text: WMKP 170100Z VRB03KT 8000 FEW017CB BKN140 BKN270 30/27 Q1010 NOSIG
Conditions at: WMKP (PENANG/BAYAN LEP, MY) observed 0100 UTC 17 June 2019
Temperature: 30.0°C (86°F)
Dewpoint: 27.0°C (81°F) [RH = 84%]
Pressure (altimeter): 29.82 inches Hg (1010.0 mb)
Winds: variable direction winds at 3 MPH (3 knots; 1.5 m/s)
Visibility: 5 miles ( 8 km)
Ceiling: 14000 feet AGL
Clouds: few clouds at 1700 feet AGL
broken clouds at 14000 feet AGL
broken clouds at 27000 feet AGL
Weather: no significant weather observed at this time

METAR text: WMKP 170030Z 00000KT 8000 FEW020 BKN140 BKN270 29/27 Q1009 NOSIG
Conditions at: WMKP (PENANG/BAYAN LEP, MY) observed 0030 UTC 17 June 2019
Temperature: 29.0°C (84°F)
Dewpoint: 27.0°C (81°F) [RH = 89%]
Pressure (altimeter): 29.79 inches Hg (1009.0 mb)
Winds: calm
Visibility: 5 miles ( 8 km)
Ceiling: 14000 feet AGL
Clouds: few clouds at 2000 feet AGL
broken clouds at 14000 feet AGL
broken clouds at 27000 feet AGL
Weather: no significant weather observed at this time

METAR text: WMKP 170000Z VRB02KT 8000 FEW017CB SCT140 BKN270 28/26 Q1009 NOSIG
Conditions at: WMKP (PENANG/BAYAN LEP, MY) observed 0000 UTC 17 June 2019
Temperature: 28.0°C (82°F)
Dewpoint: 26.0°C (79°F) [RH = 89%]
Pressure (altimeter): 29.79 inches Hg (1009.0 mb)
Winds: variable direction winds at 2 MPH (2 knots; 1.0 m/s)
Visibility: 5 miles ( 8 km)
Ceiling: 27000 feet AGL
Clouds: few clouds at 1700 feet AGL
scattered clouds at 14000 feet AGL
broken clouds at 27000 feet AGL
Weather: no significant weather observed at this time

METAR text: WMKP 162330Z 00000KT 8000 FEW020 SCT140 BKN270 28/26 Q1008 NOSIG
Conditions at: WMKP (PENANG/BAYAN LEP, MY) observed 2330 UTC 16 June 2019
Temperature: 28.0°C (82°F)
Dewpoint: 26.0°C (79°F) [RH = 89%]
Pressure (altimeter): 29.76 inches Hg (1008.0 mb)
Winds: calm
Visibility: 5 miles ( 8 km)
Ceiling: 27000 feet AGL
Clouds: few clouds at 2000 feet AGL
scattered clouds at 14000 feet AGL
broken clouds at 27000 feet AGL
Weather: no significant weather observed at this time

METAR text: WMKP 162300Z 00000KT 8000 FEW010 SCT140 BKN270 28/26 Q1008 NOSIG
Conditions at: WMKP (PENANG/BAYAN LEP, MY) observed 2300 UTC 16 June 2019
Temperature: 28.0°C (82°F)
Dewpoint: 26.0°C (79°F) [RH = 89%]
Pressure (altimeter): 29.76 inches Hg (1008.0 mb)
Winds: calm
Visibility: 5 miles ( 8 km)
Ceiling: 27000 feet AGL
Clouds: few clouds at 1000 feet AGL
scattered clouds at 14000 feet AGL
broken clouds at 27000 feet AGL
Weather: no significant weather observed at this time

METAR text: WMKP 162230Z VRB01KT 8000 FEW025 SCT140 BKN270 28/26 Q1008 NOSIG
Conditions at: WMKP (PENANG/BAYAN LEP, MY) observed 2230 UTC 16 June 2019
Temperature: 28.0°C (82°F)
Dewpoint: 26.0°C (79°F) [RH = 89%]
Pressure (altimeter): 29.76 inches Hg (1008.0 mb)
Winds: variable direction winds at 1 MPH (1 knots; 0.5 m/s)
Visibility: 5 miles ( 8 km)
Ceiling: 27000 feet AGL
Clouds: few clouds at 2500 feet AGL
scattered clouds at 14000 feet AGL
broken clouds at 27000 feet AGL
Weather: no significant weather observed at this time

METAR text: WMKP 162200Z 00000KT 9000 FEW025 SCT140 BKN270 28/26 Q1008 NOSIG
Conditions at: WMKP (PENANG/BAYAN LEP, MY) observed 2200 UTC 16 June 2019
Temperature: 28.0°C (82°F)
Dewpoint: 26.0°C (79°F) [RH = 89%]
Pressure (altimeter): 29.76 inches Hg (1008.0 mb)
Winds: calm
Visibility: 6 miles ( 9 km)
Ceiling: 27000 feet AGL
Clouds: few clouds at 2500 feet AGL
scattered clouds at 14000 feet AGL
broken clouds at 27000 feet AGL
Weather: no significant weather observed at this time

METAR text: WMKP 162130Z 00000KT 9000 FEW025 SCT140 BKN270 28/26 Q1008 NOSIG
Conditions at: WMKP (PENANG/BAYAN LEP, MY) observed 2130 UTC 16 June 2019
Temperature: 28.0°C (82°F)
Dewpoint: 26.0°C (79°F) [RH = 89%]
Pressure (altimeter): 29.76 inches Hg (1008.0 mb)
Winds: calm
Visibility: 6 miles ( 9 km)
Ceiling: 27000 feet AGL
Clouds: few clouds at 2500 feet AGL
scattered clouds at 14000 feet AGL
broken clouds at 27000 feet AGL
Weather: no significant weather observed at this time

METAR text: WMKP 162100Z 00000KT 9000 FEW025 SCT140 BKN270 28/26 Q1007 NOSIG
Conditions at: WMKP (PENANG/BAYAN LEP, MY) observed 2100 UTC 16 June 2019
Temperature: 28.0°C (82°F)
Dewpoint: 26.0°C (79°F) [RH = 89%]
Pressure (altimeter): 29.73 inches Hg (1007.0 mb)
Winds: calm
Visibility: 6 miles ( 9 km)
Ceiling: 27000 feet AGL
Clouds: few clouds at 2500 feet AGL
scattered clouds at 14000 feet AGL
broken clouds at 27000 feet AGL
Weather: no significant weather observed at this time

METAR text: WMKP 162030Z 00000KT 8000 FEW025 SCT140 BKN270 29/26 Q1008 NOSIG
Conditions at: WMKP (PENANG/BAYAN LEP, MY) observed 2030 UTC 16 June 2019
Temperature: 29.0°C (84°F)
Dewpoint: 26.0°C (79°F) [RH = 84%]
Pressure (altimeter): 29.76 inches Hg (1008.0 mb)
Winds: calm
Visibility: 5 miles ( 8 km)
Ceiling: 27000 feet AGL
Clouds: few clouds at 2500 feet AGL
scattered clouds at 14000 feet AGL
broken clouds at 27000 feet AGL
Weather: no significant weather observed at this time

METAR text: WMKP 162000Z 00000KT 9000 FEW025 SCT140 BKN270 29/26 Q1008 NOSIG
Conditions at: WMKP (PENANG/BAYAN LEP, MY) observed 2000 UTC 16 June 2019
Temperature: 29.0°C (84°F)
Dewpoint: 26.0°C (79°F) [RH = 84%]
Pressure (altimeter): 29.76 inches Hg (1008.0 mb)
Winds: calm
Visibility: 6 miles ( 9 km)
Ceiling: 27000 feet AGL
Clouds: few clouds at 2500 feet AGL
scattered clouds at 14000 feet AGL
broken clouds at 27000 feet AGL
Weather: no significant weather observed at this time

METAR text: WMKP 161930Z 00000KT 9000 FEW025 SCT140 BKN270 29/26 Q1008 NOSIG
Conditions at: WMKP (PENANG/BAYAN LEP, MY) observed 1930 UTC 16 June 2019
Temperature: 29.0°C (84°F)
Dewpoint: 26.0°C (79°F) [RH = 84%]
Pressure (altimeter): 29.76 inches Hg (1008.0 mb)
Winds: calm
Visibility: 6 miles ( 9 km)
Ceiling: 27000 feet AGL
Clouds: few clouds at 2500 feet AGL
scattered clouds at 14000 feet AGL
broken clouds at 27000 feet AGL
Weather: no significant weather observed at this time

METAR text: WMKP 161900Z 00000KT 9000 FEW025 SCT140 BKN270 29/26 Q1008 NOSIG
Conditions at: WMKP (PENANG/BAYAN LEP, MY) observed 1900 UTC 16 June 2019
Temperature: 29.0°C (84°F)
Dewpoint: 26.0°C (79°F) [RH = 84%]
Pressure (altimeter): 29.76 inches Hg (1008.0 mb)
Winds: calm
Visibility: 6 miles ( 9 km)
Ceiling: 27000 feet AGL
Clouds: few clouds at 2500 feet AGL
scattered clouds at 14000 feet AGL
broken clouds at 27000 feet AGL
Weather: no significant weather observed at this time

METAR text: WMKP 161830Z VRB02KT 9000 FEW025 SCT140 BKN270 29/26 Q1009 NOSIG
Conditions at: WMKP (PENANG/BAYAN LEP, MY) observed 1830 UTC 16 June 2019
Temperature: 29.0°C (84°F)
Dewpoint: 26.0°C (79°F) [RH = 84%]
Pressure (altimeter): 29.79 inches Hg (1009.0 mb)
Winds: variable direction winds at 2 MPH (2 knots; 1.0 m/s)
Visibility: 6 miles ( 9 km)
Ceiling: 27000 feet AGL
Clouds: few clouds at 2500 feet AGL
scattered clouds at 14000 feet AGL
broken clouds at 27000 feet AGL
Weather: no significant weather observed at this time

METAR text: WMKP 161800Z 21003KT 9000 FEW025 BKN140 BKN270 29/26 Q1010 NOSIG
Conditions at: WMKP (PENANG/BAYAN LEP, MY) observed 1800 UTC 16 June 2019
Temperature: 29.0°C (84°F)
Dewpoint: 26.0°C (79°F) [RH = 84%]
Pressure (altimeter): 29.82 inches Hg (1010.0 mb)
Winds: from the SSW (210 degrees) at 3 MPH (3 knots; 1.5 m/s)
Visibility: 6 miles ( 9 km)
Ceiling: 14000 feet AGL
Clouds: few clouds at 2500 feet AGL
broken clouds at 14000 feet AGL
broken clouds at 27000 feet AGL
Weather: no significant weather observed at this time

METAR text: WMKP 161730Z 21005KT 7000 FEW025 SCT140 BKN270 29/26 Q1010 NOSIG
Conditions at: WMKP (PENANG/BAYAN LEP, MY) observed 1730 UTC 16 June 2019
Temperature: 29.0°C (84°F)
Dewpoint: 26.0°C (79°F) [RH = 84%]
Pressure (altimeter): 29.82 inches Hg (1010.0 mb)
Winds: from the SSW (210 degrees) at 6 MPH (5 knots; 2.6 m/s)
Visibility: 4 miles ( 7 km)
Ceiling: 27000 feet AGL
Clouds: few clouds at 2500 feet AGL
scattered clouds at 14000 feet AGL
broken clouds at 27000 feet AGL
Weather: no significant weather observed at this time

METAR text: WMKP 161700Z 20004KT 170V230 7000 FEW025 SCT140 BKN270 29/27 Q1010 NOSIG
Conditions at: WMKP (PENANG/BAYAN LEP, MY) observed 1700 UTC 16 June 2019
Temperature: 29.0°C (84°F)
Dewpoint: 27.0°C (81°F) [RH = 89%]
Pressure (altimeter): 29.82 inches Hg (1010.0 mb)
Winds: from the SSW (200 degrees) at 5 MPH (4 knots; 2.1 m/s)
Visibility: 4 miles ( 7 km)
Ceiling: 27000 feet AGL
Clouds: few clouds at 2500 feet AGL
scattered clouds at 14000 feet AGL
broken clouds at 27000 feet AGL
Weather: no significant weather observed at this time

METAR text: WMKP 161630Z VRB03KT 8000 FEW025 SCT140 BKN270 29/27 Q1010 NOSIG
Conditions at: WMKP (PENANG/BAYAN LEP, MY) observed 1630 UTC 16 June 2019
Temperature: 29.0°C (84°F)
Dewpoint: 27.0°C (81°F) [RH = 89%]
Pressure (altimeter): 29.82 inches Hg (1010.0 mb)
Winds: variable direction winds at 3 MPH (3 knots; 1.5 m/s)
Visibility: 5 miles ( 8 km)
Ceiling: 27000 feet AGL
Clouds: few clouds at 2500 feet AGL
scattered clouds at 14000 feet AGL
broken clouds at 27000 feet AGL
Weather: no significant weather observed at this time

METAR text: WMKP 161600Z 21004KT 190V250 9000 FEW020 SCT140 BKN270 29/27 Q1010 NOSIG
Conditions at: WMKP (PENANG/BAYAN LEP, MY) observed 1600 UTC 16 June 2019
Temperature: 29.0°C (84°F)
Dewpoint: 27.0°C (81°F) [RH = 89%]
Pressure (altimeter): 29.82 inches Hg (1010.0 mb)
Winds: from the SSW (210 degrees) at 5 MPH (4 knots; 2.1 m/s)
Visibility: 6 miles ( 9 km)
Ceiling: 27000 feet AGL
Clouds: few clouds at 2000 feet AGL
scattered clouds at 14000 feet AGL
broken clouds at 27000 feet AGL
Weather: no significant weather observed at this time

METAR text: WMKP 161530Z 20003KT 170V230 9000 FEW025 SCT140 BKN270 29/27 Q1010 NOSIG
Conditions at: WMKP (PENANG/BAYAN LEP, MY) observed 1530 UTC 16 June 2019
Temperature: 29.0°C (84°F)
Dewpoint: 27.0°C (81°F) [RH = 89%]
Pressure (altimeter): 29.82 inches Hg (1010.0 mb)
Winds: from the SSW (200 degrees) at 3 MPH (3 knots; 1.5 m/s)
Visibility: 6 miles ( 9 km)
Ceiling: 27000 feet AGL
Clouds: few clouds at 2500 feet AGL
scattered clouds at 14000 feet AGL
broken clouds at 27000 feet AGL
Weather: no significant weather observed at this time

METAR text: WMKP 161500Z 19003KT 9000 FEW025 SCT140 BKN270 29/27 Q1010 NOSIG
Conditions at: WMKP (PENANG/BAYAN LEP, MY) observed 1500 UTC 16 June 2019
Temperature: 29.0°C (84°F)
Dewpoint: 27.0°C (81°F) [RH = 89%]
Pressure (altimeter): 29.82 inches Hg (1010.0 mb)
Winds: from the S (190 degrees) at 3 MPH (3 knots; 1.5 m/s)
Visibility: 6 miles ( 9 km)
Ceiling: 27000 feet AGL
Clouds: few clouds at 2500 feet AGL
scattered clouds at 14000 feet AGL
broken clouds at 27000 feet AGL
Weather: no significant weather observed at this time

METAR text: WMKP 161430Z VRB02KT 9000 FEW025 SCT140 BKN270 29/26 Q1010 NOSIG
Conditions at: WMKP (PENANG/BAYAN LEP, MY) observed 1430 UTC 16 June 2019
Temperature: 29.0°C (84°F)
Dewpoint: 26.0°C (79°F) [RH = 84%]
Pressure (altimeter): 29.82 inches Hg (1010.0 mb)
Winds: variable direction winds at 2 MPH (2 knots; 1.0 m/s)
Visibility: 6 miles ( 9 km)
Ceiling: 27000 feet AGL
Clouds: few clouds at 2500 feet AGL
scattered clouds at 14000 feet AGL
broken clouds at 27000 feet AGL
Weather: no significant weather observed at this time

METAR text: WMKP 161400Z 00000KT 9000 FEW025 SCT140 BKN270 29/27 Q1010 NOSIG
Conditions at: WMKP (PENANG/BAYAN LEP, MY) observed 1400 UTC 16 June 2019
Temperature: 29.0°C (84°F)
Dewpoint: 27.0°C (81°F) [RH = 89%]
Pressure (altimeter): 29.82 inches Hg (1010.0 mb)
Winds: calm
Visibility: 6 miles ( 9 km)
Ceiling: 27000 feet AGL
Clouds: few clouds at 2500 feet AGL
scattered clouds at 14000 feet AGL
broken clouds at 27000 feet AGL
Weather: no significant weather observed at this time

METAR text: WMKP 161330Z VRB03KT 9000 FEW025 SCT140 BKN270 29/26 Q1009 NOSIG
Conditions at: WMKP (PENANG/BAYAN LEP, MY) observed 1330 UTC 16 June 2019
Temperature: 29.0°C (84°F)
Dewpoint: 26.0°C (79°F) [RH = 84%]
Pressure (altimeter): 29.79 inches Hg (1009.0 mb)
Winds: variable direction winds at 3 MPH (3 knots; 1.5 m/s)
Visibility: 6 miles ( 9 km)
Ceiling: 27000 feet AGL
Clouds: few clouds at 2500 feet AGL
scattered clouds at 14000 feet AGL
broken clouds at 27000 feet AGL
Weather: no significant weather observed at this time

METAR text: WMKP 161300Z VRB03KT 9000 FEW025 SCT140 BKN270 29/26 Q1009 NOSIG
Conditions at: WMKP (PENANG/BAYAN LEP, MY) observed 1300 UTC 16 June 2019
Temperature: 29.0°C (84°F)
Dewpoint: 26.0°C (79°F) [RH = 84%]
Pressure (altimeter): 29.79 inches Hg (1009.0 mb)
Winds: variable direction winds at 3 MPH (3 knots; 1.5 m/s)
Visibility: 6 miles ( 9 km)
Ceiling: 27000 feet AGL
Clouds: few clouds at 2500 feet AGL
scattered clouds at 14000 feet AGL
broken clouds at 27000 feet AGL
Weather: no significant weather observed at this time

METAR text: WMKP 161230Z VRB02KT 9000 FEW025 SCT140 BKN270 30/26 Q1008 NOSIG
Conditions at: WMKP (PENANG/BAYAN LEP, MY) observed 1230 UTC 16 June 2019
Temperature: 30.0°C (86°F)
Dewpoint: 26.0°C (79°F) [RH = 79%]
Pressure (altimeter): 29.76 inches Hg (1008.0 mb)
Winds: variable direction winds at 2 MPH (2 knots; 1.0 m/s)
Visibility: 6 miles ( 9 km)
Ceiling: 27000 feet AGL
Clouds: few clouds at 2500 feet AGL
scattered clouds at 14000 feet AGL
broken clouds at 27000 feet AGL
Weather: no significant weather observed at this time

METAR text: WMKP 161200Z 24004KT 210V280 8000 FEW025 SCT140 BKN270 30/26 Q1008 NOSIG
Conditions at: WMKP (PENANG/BAYAN LEP, MY) observed 1200 UTC 16 June 2019
Temperature: 30.0°C (86°F)
Dewpoint: 26.0°C (79°F) [RH = 79%]
Pressure (altimeter): 29.76 inches Hg (1008.0 mb)
Winds: from the WSW (240 degrees) at 5 MPH (4 knots; 2.1 m/s)
Visibility: 5 miles ( 8 km)
Ceiling: 27000 feet AGL
Clouds: few clouds at 2500 feet AGL
scattered clouds at 14000 feet AGL
broken clouds at 27000 feet AGL
Weather: no significant weather observed at this time

METAR text: WMKP 161130Z 23003KT 200V260 8000 FEW020 SCT140 BKN270 30/26 Q1008 NOSIG
Conditions at: WMKP (PENANG/BAYAN LEP, MY) observed 1130 UTC 16 June 2019
Temperature: 30.0°C (86°F)
Dewpoint: 26.0°C (79°F) [RH = 79%]
Pressure (altimeter): 29.76 inches Hg (1008.0 mb)
Winds: from the SW (230 degrees) at 3 MPH (3 knots; 1.5 m/s)
Visibility: 5 miles ( 8 km)
Ceiling: 27000 feet AGL
Clouds: few clouds at 2000 feet AGL
scattered clouds at 14000 feet AGL
broken clouds at 27000 feet AGL
Weather: no significant weather observed at this time

METAR text: WMKP 161100Z VRB03KT 9000 FEW020 BKN140 BKN270 31/26 Q1008 NOSIG
Conditions at: WMKP (PENANG/BAYAN LEP, MY) observed 1100 UTC 16 June 2019
Temperature: 31.0°C (88°F)
Dewpoint: 26.0°C (79°F) [RH = 75%]
Pressure (altimeter): 29.76 inches Hg (1008.0 mb)
Winds: variable direction winds at 3 MPH (3 knots; 1.5 m/s)
Visibility: 6 miles ( 9 km)
Ceiling: 14000 feet AGL
Clouds: few clouds at 2000 feet AGL
broken clouds at 14000 feet AGL
broken clouds at 27000 feet AGL
Weather: no significant weather observed at this time

METAR text: WMKP 161030Z VRB05KT 9000 FEW020 BKN140 BKN270 31/26 Q1008 NOSIG
Conditions at: WMKP (PENANG/BAYAN LEP, MY) observed 1030 UTC 16 June 2019
Temperature: 31.0°C (88°F)
Dewpoint: 26.0°C (79°F) [RH = 75%]
Pressure (altimeter): 29.76 inches Hg (1008.0 mb)
Winds: variable direction winds at 6 MPH (5 knots; 2.6 m/s)
Visibility: 6 miles ( 9 km)
Ceiling: 14000 feet AGL
Clouds: few clouds at 2000 feet AGL
broken clouds at 14000 feet AGL
broken clouds at 27000 feet AGL
Weather: no significant weather observed at this time

METAR text: WMKP 161000Z 23006KT 190V290 8000 FEW020 BKN140 BKN270 31/26 Q1007 NOSIG
Conditions at: WMKP (PENANG/BAYAN LEP, MY) observed 1000 UTC 16 June 2019
Temperature: 31.0°C (88°F)
Dewpoint: 26.0°C (79°F) [RH = 75%]
Pressure (altimeter): 29.73 inches Hg (1007.0 mb)
Winds: from the SW (230 degrees) at 7 MPH (6 knots; 3.1 m/s)
Visibility: 5 miles ( 8 km)
Ceiling: 14000 feet AGL
Clouds: few clouds at 2000 feet AGL
broken clouds at 14000 feet AGL
broken clouds at 27000 feet AGL
Weather: no significant weather observed at this time

METAR text: WMKP 160930Z 24006KT 200V280 8000 FEW020 BKN140 BKN280 31/25 Q1007 NOSIG
Conditions at: WMKP (PENANG/BAYAN LEP, MY) observed 0930 UTC 16 June 2019
Temperature: 31.0°C (88°F)
Dewpoint: 25.0°C (77°F) [RH = 71%]
Pressure (altimeter): 29.73 inches Hg (1007.0 mb)
Winds: from the WSW (240 degrees) at 7 MPH (6 knots; 3.1 m/s)
Visibility: 5 miles ( 8 km)
Ceiling: 14000 feet AGL
Clouds: few clouds at 2000 feet AGL
broken clouds at 14000 feet AGL
broken clouds at 28000 feet AGL
Weather: no significant weather observed at this time

METAR text: WMKP 160900Z 23007KT 190V280 9999 FEW020 BKN140 BKN280 32/25 Q1007 NOSIG
Conditions at: WMKP (PENANG/BAYAN LEP, MY) observed 0900 UTC 16 June 2019
Temperature: 32.0°C (90°F)
Dewpoint: 25.0°C (77°F) [RH = 67%]
Pressure (altimeter): 29.73 inches Hg (1007.0 mb)
Winds: from the SW (230 degrees) at 8 MPH (7 knots; 3.6 m/s)
Visibility: 6 or more miles (10+ km)
Ceiling: 14000 feet AGL
Clouds: few clouds at 2000 feet AGL
broken clouds at 14000 feet AGL
broken clouds at 28000 feet AGL
Weather: no significant weather observed at this time

METAR text: WMKP 160830Z 22007KT 190V290 9999 FEW020 BKN140 BKN280 32/25 Q1008 NOSIG
Conditions at: WMKP (PENANG/BAYAN LEP, MY) observed 0830 UTC 16 June 2019
Temperature: 32.0°C (90°F)
Dewpoint: 25.0°C (77°F) [RH = 67%]
Pressure (altimeter): 29.76 inches Hg (1008.0 mb)
Winds: from the SW (220 degrees) at 8 MPH (7 knots; 3.6 m/s)
Visibility: 6 or more miles (10+ km)
Ceiling: 14000 feet AGL
Clouds: few clouds at 2000 feet AGL
broken clouds at 14000 feet AGL
broken clouds at 28000 feet AGL
Weather: no significant weather observed at this time

METAR text: WMKP 160800Z 23006KT 170V270 9999 FEW020 BKN140 BKN280 32/25 Q1008 NOSIG
Conditions at: WMKP (PENANG/BAYAN LEP, MY) observed 0800 UTC 16 June 2019
Temperature: 32.0°C (90°F)
Dewpoint: 25.0°C (77°F) [RH = 67%]
Pressure (altimeter): 29.76 inches Hg (1008.0 mb)
Winds: from the SW (230 degrees) at 7 MPH (6 knots; 3.1 m/s)
Visibility: 6 or more miles (10+ km)
Ceiling: 14000 feet AGL
Clouds: few clouds at 2000 feet AGL
broken clouds at 14000 feet AGL
broken clouds at 28000 feet AGL
Weather: no significant weather observed at this time

METAR text: WMKP 160730Z 22008KT 190V260 9999 FEW020 BKN140 BKN280 32/25 Q1008 NOSIG
Conditions at: WMKP (PENANG/BAYAN LEP, MY) observed 0730 UTC 16 June 2019
Temperature: 32.0°C (90°F)
Dewpoint: 25.0°C (77°F) [RH = 67%]
Pressure (altimeter): 29.76 inches Hg (1008.0 mb)
Winds: from the SW (220 degrees) at 9 MPH (8 knots; 4.1 m/s)
Visibility: 6 or more miles (10+ km)
Ceiling: 14000 feet AGL
Clouds: few clouds at 2000 feet AGL
broken clouds at 14000 feet AGL
broken clouds at 28000 feet AGL
Weather: no significant weather observed at this time

METAR text: WMKP 160700Z 22008KT 180V260 9999 FEW020 BKN140 BKN280 33/25 Q1009 NOSIG
Conditions at: WMKP (PENANG/BAYAN LEP, MY) observed 0700 UTC 16 June 2019
Temperature: 33.0°C (91°F)
Dewpoint: 25.0°C (77°F) [RH = 63%]
Pressure (altimeter): 29.79 inches Hg (1009.0 mb)
Winds: from the SW (220 degrees) at 9 MPH (8 knots; 4.1 m/s)
Visibility: 6 or more miles (10+ km)
Ceiling: 14000 feet AGL
Clouds: few clouds at 2000 feet AGL
broken clouds at 14000 feet AGL
broken clouds at 28000 feet AGL
Weather: no significant weather observed at this time

METAR text: WMKP 160630Z 22008KT 190V250 9000 FEW020 SCT140 BKN280 33/25 Q1009 NOSIG
Conditions at: WMKP (PENANG/BAYAN LEP, MY) observed 0630 UTC 16 June 2019
Temperature: 33.0°C (91°F)
Dewpoint: 25.0°C (77°F) [RH = 63%]
Pressure (altimeter): 29.79 inches Hg (1009.0 mb)
Winds: from the SW (220 degrees) at 9 MPH (8 knots; 4.1 m/s)
Visibility: 6 miles ( 9 km)
Ceiling: 28000 feet AGL
Clouds: few clouds at 2000 feet AGL
scattered clouds at 14000 feet AGL
broken clouds at 28000 feet AGL
Weather: no significant weather observed at this time

METAR text: WMKP 160600Z 21008KT 160V250 9000 FEW020 SCT140 BKN270 32/25 Q1009 NOSIG
Conditions at: WMKP (PENANG/BAYAN LEP, MY) observed 0600 UTC 16 June 2019
Temperature: 32.0°C (90°F)
Dewpoint: 25.0°C (77°F) [RH = 67%]
Pressure (altimeter): 29.79 inches Hg (1009.0 mb)
Winds: from the SSW (210 degrees) at 9 MPH (8 knots; 4.1 m/s)
Visibility: 6 miles ( 9 km)
Ceiling: 27000 feet AGL
Clouds: few clouds at 2000 feet AGL
scattered clouds at 14000 feet AGL
broken clouds at 27000 feet AGL
Weather: no significant weather observed at this time

METAR text: WMKP 160530Z 21009KT 180V250 8000 FEW020 SCT140 BKN270 33/25 Q1010 NOSIG
Conditions at: WMKP (PENANG/BAYAN LEP, MY) observed 0530 UTC 16 June 2019
Temperature: 33.0°C (91°F)
Dewpoint: 25.0°C (77°F) [RH = 63%]
Pressure (altimeter): 29.82 inches Hg (1010.0 mb)
Winds: from the SSW (210 degrees) at 10 MPH (9 knots; 4.6 m/s)
Visibility: 5 miles ( 8 km)
Ceiling: 27000 feet AGL
Clouds: few clouds at 2000 feet AGL
scattered clouds at 14000 feet AGL
broken clouds at 27000 feet AGL
Weather: no significant weather observed at this time

METAR text: WMKP 160500Z 22007KT 150V250 8000 FEW020 SCT140 BKN270 33/24 Q1010 NOSIG
Conditions at: WMKP (PENANG/BAYAN LEP, MY) observed 0500 UTC 16 June 2019
Temperature: 33.0°C (91°F)
Dewpoint: 24.0°C (75°F) [RH = 59%]
Pressure (altimeter): 29.82 inches Hg (1010.0 mb)
Winds: from the SW (220 degrees) at 8 MPH (7 knots; 3.6 m/s)
Visibility: 5 miles ( 8 km)
Ceiling: 27000 feet AGL
Clouds: few clouds at 2000 feet AGL
scattered clouds at 14000 feet AGL
broken clouds at 27000 feet AGL
Weather: no significant weather observed at this time

METAR text: WMKP 160430Z 20006KT 150V240 8000 FEW020 BKN140 BKN270 32/25 Q1010 NOSIG
Conditions at: WMKP (PENANG/BAYAN LEP, MY) observed 0430 UTC 16 June 2019
Temperature: 32.0°C (90°F)
Dewpoint: 25.0°C (77°F) [RH = 67%]
Pressure (altimeter): 29.82 inches Hg (1010.0 mb)
Winds: from the SSW (200 degrees) at 7 MPH (6 knots; 3.1 m/s)
Visibility: 5 miles ( 8 km)
Ceiling: 14000 feet AGL
Clouds: few clouds at 2000 feet AGL
broken clouds at 14000 feet AGL
broken clouds at 27000 feet AGL
Weather: no significant weather observed at this time

METAR text: WMKP 160400Z 21007KT 180V240 8000 FEW020 BKN140 BKN270 31/25 Q1011 NOSIG
Conditions at: WMKP (PENANG/BAYAN LEP, MY) observed 0400 UTC 16 June 2019
Temperature: 31.0°C (88°F)
Dewpoint: 25.0°C (77°F) [RH = 71%]
Pressure (altimeter): 29.85 inches Hg (1011.0 mb)
Winds: from the SSW (210 degrees) at 8 MPH (7 knots; 3.6 m/s)
Visibility: 5 miles ( 8 km)
Ceiling: 14000 feet AGL
Clouds: few clouds at 2000 feet AGL
broken clouds at 14000 feet AGL
broken clouds at 27000 feet AGL
Weather: no significant weather observed at this time

METAR text: WMKP 160330Z 16005KT 120V230 8000 FEW020 BKN140 BKN270 31/25 Q1011 NOSIG
Conditions at: WMKP (PENANG/BAYAN LEP, MY) observed 0330 UTC 16 June 2019
Temperature: 31.0°C (88°F)
Dewpoint: 25.0°C (77°F) [RH = 71%]
Pressure (altimeter): 29.85 inches Hg (1011.0 mb)
Winds: from the SSE (160 degrees) at 6 MPH (5 knots; 2.6 m/s)
Visibility: 5 miles ( 8 km)
Ceiling: 14000 feet AGL
Clouds: few clouds at 2000 feet AGL
broken clouds at 14000 feet AGL
broken clouds at 27000 feet AGL
Weather: no significant weather observed at this time

METAR text: WMKP 160300Z 16005KT 120V210 7000 FEW020 BKN140 BKN270 31/25 Q1011 NOSIG
Conditions at: WMKP (PENANG/BAYAN LEP, MY) observed 0300 UTC 16 June 2019
Temperature: 31.0°C (88°F)
Dewpoint: 25.0°C (77°F) [RH = 71%]
Pressure (altimeter): 29.85 inches Hg (1011.0 mb)
Winds: from the SSE (160 degrees) at 6 MPH (5 knots; 2.6 m/s)
Visibility: 4 miles ( 7 km)
Ceiling: 14000 feet AGL
Clouds: few clouds at 2000 feet AGL
broken clouds at 14000 feet AGL
broken clouds at 27000 feet AGL
Weather: no significant weather observed at this time

METAR text: WMKP 160230Z 15005KT 110V200 7000 FEW020 BKN140 BKN270 30/25 Q1011 NOSIG
Conditions at: WMKP (PENANG/BAYAN LEP, MY) observed 0230 UTC 16 June 2019
Temperature: 30.0°C (86°F)
Dewpoint: 25.0°C (77°F) [RH = 75%]
Pressure (altimeter): 29.85 inches Hg (1011.0 mb)
Winds: from the SSE (150 degrees) at 6 MPH (5 knots; 2.6 m/s)
Visibility: 4 miles ( 7 km)
Ceiling: 14000 feet AGL
Clouds: few clouds at 2000 feet AGL
broken clouds at 14000 feet AGL
broken clouds at 27000 feet AGL
Weather: no significant weather observed at this time

METAR text: WMKP 160200Z 14006KT 100V190 7000 FEW020 BKN140 BKN270 30/26 Q1011 NOSIG
Conditions at: WMKP (PENANG/BAYAN LEP, MY) observed 0200 UTC 16 June 2019
Temperature: 30.0°C (86°F)
Dewpoint: 26.0°C (79°F) [RH = 79%]
Pressure (altimeter): 29.85 inches Hg (1011.0 mb)
Winds: from the SE (140 degrees) at 7 MPH (6 knots; 3.1 m/s)
Visibility: 4 miles ( 7 km)
Ceiling: 14000 feet AGL
Clouds: few clouds at 2000 feet AGL
broken clouds at 14000 feet AGL
broken clouds at 27000 feet AGL
Weather: no significant weather observed at this time

METAR text: WMKP 160130Z 15005KT 100V200 7000 FEW020 BKN140 BKN270 29/26 Q1010 NOSIG
Conditions at: WMKP (PENANG/BAYAN LEP, MY) observed 0130 UTC 16 June 2019
Temperature: 29.0°C (84°F)
Dewpoint: 26.0°C (79°F) [RH = 84%]
Pressure (altimeter): 29.82 inches Hg (1010.0 mb)
Winds: from the SSE (150 degrees) at 6 MPH (5 knots; 2.6 m/s)
Visibility: 4 miles ( 7 km)
Ceiling: 14000 feet AGL
Clouds: few clouds at 2000 feet AGL
broken clouds at 14000 feet AGL
broken clouds at 27000 feet AGL
Weather: no significant weather observed at this time

METAR text: WMKP 160100Z 15004KT 110V200 7000 FEW020 BKN140 BKN280 29/26 Q1010 NOSIG
Conditions at: WMKP (PENANG/BAYAN LEP, MY) observed 0100 UTC 16 June 2019
Temperature: 29.0°C (84°F)
Dewpoint: 26.0°C (79°F) [RH = 84%]
Pressure (altimeter): 29.82 inches Hg (1010.0 mb)
Winds: from the SSE (150 degrees) at 5 MPH (4 knots; 2.1 m/s)
Visibility: 4 miles ( 7 km)
Ceiling: 14000 feet AGL
Clouds: few clouds at 2000 feet AGL
broken clouds at 14000 feet AGL
broken clouds at 28000 feet AGL
Weather: no significant weather observed at this time

METAR text: WMKP 160030Z VRB02KT 7000 FEW020 BKN140 BKN270 29/27 Q1010 NOSIG
Conditions at: WMKP (PENANG/BAYAN LEP, MY) observed 0030 UTC 16 June 2019
Temperature: 29.0°C (84°F)
Dewpoint: 27.0°C (81°F) [RH = 89%]
Pressure (altimeter): 29.82 inches Hg (1010.0 mb)
Winds: variable direction winds at 2 MPH (2 knots; 1.0 m/s)
Visibility: 4 miles ( 7 km)
Ceiling: 14000 feet AGL
Clouds: few clouds at 2000 feet AGL
broken clouds at 14000 feet AGL
broken clouds at 27000 feet AGL
Weather: no significant weather observed at this time

METAR text: WMKP 160000Z 00000KT 7000 FEW020 SCT140 BKN270 28/27 Q1009 NOSIG
Conditions at: WMKP (PENANG/BAYAN LEP, MY) observed 0000 UTC 16 June 2019
Temperature: 28.0°C (82°F)
Dewpoint: 27.0°C (81°F) [RH = 94%]
Pressure (altimeter): 29.79 inches Hg (1009.0 mb)
Winds: calm
Visibility: 4 miles ( 7 km)
Ceiling: 27000 feet AGL
Clouds: few clouds at 2000 feet AGL
scattered clouds at 14000 feet AGL
broken clouds at 27000 feet AGL
Weather: no significant weather observed at this time

METAR text: WMKP 152330Z 00000KT 7000 FEW020 SCT140 BKN270 27/26 Q1009 NOSIG
Conditions at: WMKP (PENANG/BAYAN LEP, MY) observed 2330 UTC 15 June 2019
Temperature: 27.0°C (81°F)
Dewpoint: 26.0°C (79°F) [RH = 94%]
Pressure (altimeter): 29.79 inches Hg (1009.0 mb)
Winds: calm
Visibility: 4 miles ( 7 km)
Ceiling: 27000 feet AGL
Clouds: few clouds at 2000 feet AGL
scattered clouds at 14000 feet AGL
broken clouds at 27000 feet AGL
Weather: no significant weather observed at this time

METAR text: WMKP 152300Z 00000KT 8000 FEW025 SCT140 BKN270 28/26 Q1009 NOSIG
Conditions at: WMKP (PENANG/BAYAN LEP, MY) observed 2300 UTC 15 June 2019
Temperature: 28.0°C (82°F)
Dewpoint: 26.0°C (79°F) [RH = 89%]
Pressure (altimeter): 29.79 inches Hg (1009.0 mb)
Winds: calm
Visibility: 5 miles ( 8 km)
Ceiling: 27000 feet AGL
Clouds: few clouds at 2500 feet AGL
scattered clouds at 14000 feet AGL
broken clouds at 27000 feet AGL
Weather: no significant weather observed at this time

Forecast for: WMKP (PENANG/BAYAN LEP, MY)
Text: TAF WMKP 170500Z 1706/1806 22007KT 9000 FEW020
Forecast period: 0600 to 1200 UTC 17 June 2019
Forecast type: FROM: standard forecast or significant change
Winds: from the SW (220 degrees) at 8 MPH (7 knots; 3.6 m/s)
Visibility: 6 miles (9 km)
Ceiling: at least 12,000 feet AGL
Clouds: few clouds at 2000 feet AGL
Weather: no significant weather forecast for this period
Text: BECMG 1712/1714 VRB03KT FEW025
Forecast period: 1200 UTC 17 June 2019 to 0000 UTC 18 June 2019
Forecast type: BECOMING: Conditions expected to become as follows by 1400 UTC 17 June 2019
Winds: variable direction winds at 3 MPH (3 knots; 1.5 m/s)
Visibility: 6 miles (9 km)
Ceiling: at least 12,000 feet AGL
Clouds: few clouds at 2500 feet AGL
Weather: no significant weather forecast for this period
Text: BECMG 1800/1802 16005KT FEW020
Forecast period: 0000 to 0600 UTC 18 June 2019
Forecast type: BECOMING: Conditions expected to become as follows by 0200 UTC 18 June 2019
Winds: from the SSE (160 degrees) at 6 MPH (5 knots; 2.6 m/s)
Visibility: 6 miles (9 km)
Ceiling: at least 12,000 feet AGL
Clouds: few clouds at 2000 feet AGL
Weather: no significant weather forecast for this period